Impacts METAR Board
IDs:

KATL - Atlanta/Hartsfield-J, GA, US

Updated at: 0900 UTC 17 Feb 2019
Potential Impact None Slight Moderate High
Time 16/21Z 16/22Z 16/23Z 17/00Z 17/01Z 17/02Z 17/03Z 17/04Z 17/05Z 17/06Z 17/07Z 17/08Z 17/09Z
Temp61 60 56 53 51 50 49 49 50 49 50 50 50
Dewpt50 49 47 46 45 44 44 44 44 44 44 45 46
Altim29.78 29.79 29.81 29.82 29.84 29.85 29.88 29.87 29.87 29.88 29.87 29.87 29.87
VIS10 10 10 10 10 10 10 10 10 10 10 10 8
CIG250 250 200 250 180 180 200 180 180 140 140 7 6
CoverBKNBKNBKNBKNBKNBKNBKNBKNOVCOVCBKNOVCOVC
FltCatVFRVFRVFRVFRVFRVFRVFRVFRVFRVFRVFRIFRIFR
WX--------------------------
WDir31032034033033035033010601001108090
WSpd9 8 9 7 9 6 5 4 5 7 6 7 9
WGst-- -- -- -- -- -- -- -- -- -- -- -- --
Raw hourly METARs
KATL 162052Z 31009KT 10SM FEW025 BKN250 16/10 A2978 RMK AO2 SLP080 T01610100 55002
KATL 162152Z 32008KT 10SM FEW024 SCT200 BKN250 16/09 A2979 RMK AO2 SLP085 T01560094
KATL 162252Z 34009KT 10SM FEW022 FEW150 BKN200 BKN250 13/08 A2981 RMK AO2 SLP092 T01330083
KATL 162352Z 33007KT 10SM FEW012 SCT022 SCT200 BKN250 12/08 A2982 RMK AO2 SLP098 T01170078 10172 20117 53015
KATL 170052Z 33009KT 10SM SCT011 BKN180 BKN250 11/07 A2984 RMK AO2 SLP102 T01060072
KATL 170152Z 35006KT 10SM FEW010 BKN180 BKN250 10/07 A2985 RMK AO2 SLP108 T01000067
KATL 170252Z 33005KT 10SM FEW010 BKN200 BKN250 09/07 A2988 RMK AO2 SLP117 T00940067 53017
KATL 170352Z 01004KT 10SM FEW033 BKN180 BKN250 09/07 A2987 RMK AO2 SLP113 T00940067
KATL 170452Z 06005KT 10SM FEW033 SCT140 BKN180 OVC250 10/07 A2987 RMK AO2 SLP114 T01000067 401720094
KATL 170552Z 10007KT 10SM FEW032 BKN140 OVC200 09/07 A2988 RMK AO2 SLP116 T00940067 10117 20094 53001
KATL 170652Z 11006KT 10SM FEW010 FEW032 BKN140 BKN180 BKN250 10/07 A2987 RMK AO2 SLP114 T01000067
KATL 170752Z 08007KT 10SM OVC007 10/07 A2987 RMK AO2 SLP115 T01000072
KATL 170852Z 09009KT 8SM OVC006 10/08 A2987 RMK AO2 RAB36E50 SLP114 P0000 60000 T01000078 56002



Page loaded:  09:20 UTC  |   01:20 AM Pacific  |   02:20 AM Mountain  |   03:20 AM Central  |   04:20 AM Eastern

 

ADVISORIES

FORECASTS

FORECASTS

OBSERVATIONS

USER TOOLS

ABOUT US